This is the latest recevied weather packets stored in our database for station/object MKSRDG. If no packets are shown the sender has not sent any weather packets the latest 10 day(s).
| Time | Temp. | Humidity | Pressure | Rain* | Wind** | Luminosity | Snow |
|---|---|---|---|---|---|---|---|
| 1777548300 | 9.44° C | 79% | 1018.8 hPa | 0 mm | - | 0 W/m² | - |
| 1777547400 | 9.44° C | 80% | 1018.7 hPa | 0 mm | - | 0 W/m² | - |
| 1777546500 | 9.44° C | 80% | 1018.6 hPa | 0 mm | - | 0 W/m² | - |
| 1777545600 | 10° C | 78% | 1018.7 hPa | 0 mm | - | 0 W/m² | - |
| 1777544700 | 10° C | 77% | 1018.6 hPa | 0 mm | - | 0 W/m² | - |
| 1777543800 | 10.56° C | 77% | 1018.7 hPa | 0 mm | - | 0 W/m² | - |
| 1777542901 | 10° C | 78% | 1018.7 hPa | 0 mm | - | 0 W/m² | - |
| 1777542000 | 10° C | 80% | 1018.6 hPa | 0 mm | - | 0 W/m² | - |
| 1777541101 | 10° C | 81% | 1018.8 hPa | 0 mm | - | 0 W/m² | - |
| 1777540200 | 10° C | 83% | 1018.9 hPa | 0 mm | - | 0 W/m² | - |
| 1777539301 | 9.44° C | 84% | 1018.9 hPa | 0 mm | - | 0 W/m² | - |
| 1777538401 | 9.44° C | 84% | 1019 hPa | 0 mm | - | 0 W/m² | - |
| 1777537501 | 9.44° C | 85% | 1019.1 hPa | 0 mm | - | 0 W/m² | - |
| 1777536601 | 9.44° C | 84% | 1019.1 hPa | 0 mm | - | 0 W/m² | - |
| 1777535701 | 10.56° C | 82% | 1019.2 hPa | 0 mm | - | 0 W/m² | - |
| 1777534801 | 10° C | 82% | 1019.2 hPa | 0 mm | - | 0 W/m² | - |
| 1777533901 | 10.56° C | 81% | 1019.4 hPa | 0 mm | - | 0 W/m² | - |
| 1777533001 | 11.11° C | 80% | 1019.4 hPa | 0 mm | - | 0 W/m² | - |
| 1777532101 | 11.11° C | 79% | 1019.5 hPa | 0 mm | - | 0 W/m² | - |
| 1777531201 | 11.67° C | 75% | 1019.7 hPa | 0 mm | - | 0 W/m² | - |
| 1777530301 | 11.67° C | 74% | 1019.8 hPa | 0 mm | - | 0 W/m² | - |
| 1777529401 | 11.67° C | 75% | 1019.9 hPa | 0 mm | - | 0 W/m² | - |
| 1777528501 | 11.67° C | 74% | 1019.9 hPa | 0 mm | - | 0 W/m² | - |
| 1777527601 | 12.22° C | 72% | 1019.9 hPa | 0 mm | - | 0 W/m² | - |
| 1777526701 | 11.67° C | 72% | 1020 hPa | 0 mm | - | 0 W/m² | - |
* Rain latest hour (hover to see other rain measurements)
** Current wind speed in m/s (hover to see current wind gust speed)